Grand Portage, Minnesota
Current Conditions -  °F | °C
As of 7:00 PM on Monday 24 Nov 2014 (Local Time) from CYQT Reporting Station
Light Snow Light Snow  
Wind Chill:   Ceiling: 5000
Heat Index: 19°   Visibility: 7mi
Dew Point: 12°   Wind: 14mph
Humidity: 74%   Direction: 320°NW
Pressure: 29.6"   Gusts: NA
Location:  47.96°N, 89.68°W
Report Text: CYQT 250100Z 32012KT 300V020 7SM -SN DRSN OVC050 M07/M11 A2960 RMK SC8 SLP037
Loading
Personal Weather Stations






























Interactive Weather Map New forecast layout! Learn more

10-Day Weather Forecast

Advertisements
Track Severe Weather on mobile